This is the latest recevied weather packets stored in our database for station/object K9MWD. If no packets are shown the sender has not sent any weather packets the latest 10 day(s).
| Time | Temp. | Humidity | Pressure | Rain* | Wind** | Luminosity | Snow |
|---|---|---|---|---|---|---|---|
| 1777773877 | 20° C | 51% | 1019.5 hPa | 0 mm | - | 0 W/m² | - |
| 1777773573 | 20° C | 50% | 1019.5 hPa | 0 mm | - | 0 W/m² | - |
| 1777773270 | 20° C | 48% | 1019.6 hPa | 0 mm | - | 0 W/m² | - |
| 1777772966 | 20° C | 48% | 1019.4 hPa | 0 mm | - | 0 W/m² | - |
| 1777772663 | 20.56° C | 47% | 1019.4 hPa | 0 mm | - | 0 W/m² | - |
| 1777772362 | 20.56° C | 47% | 1019.3 hPa | 0 mm | - | 0 W/m² | - |
| 1777772058 | 20.56° C | 46% | 1019.4 hPa | 0 mm | - | 0 W/m² | - |
| 1777771755 | 20.56° C | 46% | 1019.4 hPa | 0 mm | - | 0 W/m² | - |
| 1777771454 | 21.11° C | 44% | 1019.4 hPa | 0 mm | - | 0 W/m² | - |
| 1777771149 | 21.67° C | 42% | 1019.2 hPa | 0 mm | - | 1 W/m² | - |
| 1777770846 | 22.22° C | 40% | 1019.2 hPa | 0 mm | - | 2 W/m² | - |
| 1777770543 | 22.78° C | 38% | 1019.2 hPa | 0 mm | - | 4 W/m² | - |
| 1777770240 | 22.78° C | 36% | 1019.2 hPa | 0 mm | - | 7 W/m² | - |
| 1777769937 | 23.33° C | 35% | 1019.2 hPa | 0 mm | - | 10 W/m² | - |
| 1777769635 | 23.89° C | 34% | 1019 hPa | 0 mm | - | 14 W/m² | - |
| 1777769330 | 23.89° C | 34% | 1019.1 hPa | 0 mm | - | 19 W/m² | - |
| 1777769028 | 23.89° C | 32% | 1019.1 hPa | 0 mm | - | 24 W/m² | - |
| 1777768725 | 24.44° C | 32% | 1019.1 hPa | 0 mm | - | 28 W/m² | - |
| 1777768422 | 23.89° C | 32% | 1019.1 hPa | 0 mm | - | 33 W/m² | - |
| 1777768119 | 23.89° C | 33% | 1019.2 hPa | 0 mm | - | 38 W/m² | - |
| 1777767816 | 24.44° C | 32% | 1018.9 hPa | 0 mm | - | 44 W/m² | - |
| 1777767513 | 24.44° C | 33% | 1019.2 hPa | 0 mm | - | 52 W/m² | - |
| 1777767209 | 25° C | 30% | 1019.1 hPa | 0 mm | - | 59 W/m² | - |
| 1777766907 | 25.56° C | 29% | 1018.7 hPa | 0 mm | - | 67 W/m² | - |
| 1777766604 | 25° C | 31% | 1019.1 hPa | 0 mm | - | 77 W/m² | - |
* Rain latest hour (hover to see other rain measurements)
** Current wind speed in m/s (hover to see current wind gust speed)